Main page
METAR-TAF:

METAR-TAF

Airports :

Chita, Russia

Kadala Airport

latitude: 52-05N, longitude: 113-29E, elevation: 685 m

Current weather observation

The report was made 44 minutes ago, at 11:00 UTC
Wind 8 kt from the West/Northwest
Temperature 17°C
Humidity 23%
Pressure 1011 hPa
Visibility 10 km or more

METAR: UIAA 261100Z 30004MPS 9999 NSC 17/M04 Q1011 R29/70D NOSIG RMK QFE700/0933

Time: 20:44 (11:44 UTC)

Forecast

The report was made 44 minutes ago, at 11:00 UTC
Forecast valid from 26 at 12 UTC to 27 at 12 UTC
Wind 6 kt from the Northwest
Visibility 10 km or more
Scattered clouds at a height of 4000 ft, Cumulonimbus.

TAF: UIAA 261100Z 2612/2712 31003MPS 9999 SCT040CB

Weather observations and forecasts of more than 4000 airports (METAR and TAF reports).

The available stations are represented by yellow and red dots on the map.

Hover mouse over dot to see the name of the station.

Then click to see weather observations and forecasts.

To change the map : click on the green buttons with a black cross to zoom in, on the green button with a dash to zoom out, or on the green arrows for adjacent maps.


METAR-TAF: